createdAt,value
2022-08-01T00:00:45.153Z,17.15
2022-08-01T00:03:50.240Z,17.18
2022-08-01T00:06:53.861Z,17.19
2022-08-01T00:09:57.502Z,17.16
2022-08-01T00:13:01.171Z,17.17
2022-08-01T00:16:05.016Z,17.21
2022-08-01T00:19:10.175Z,17.19
2022-08-01T00:22:13.777Z,17.21
2022-08-01T00:25:17.495Z,17.18
2022-08-01T00:28:21.156Z,17.15
2022-08-01T00:31:24.832Z,17.16
2022-08-01T00:34:29.843Z,17.14
2022-08-01T00:37:33.475Z,17.15
2022-08-01T00:40:37.212Z,17.14
2022-08-01T00:43:40.898Z,17.14
2022-08-01T00:46:44.627Z,17.14
2022-08-01T00:49:49.775Z,17.11
2022-08-01T00:52:54.079Z,17.11
2022-08-01T00:55:58.803Z,17.10
2022-08-01T00:59:02.835Z,17.09
2022-08-01T01:02:15.597Z,17.05
2022-08-01T01:05:21.268Z,17.06
2022-08-01T01:08:34.791Z,17.05
2022-08-01T01:11:50.896Z,17.04
2022-08-01T01:15:06.744Z,17.02
2022-08-01T01:18:16.967Z,17.05
2022-08-01T01:21:53.140Z,17.02
2022-08-01T01:25:28.266Z,17.00
2022-08-01T01:28:43.052Z,17.02
2022-08-01T01:32:06.270Z,17.05
2022-08-01T01:35:17.947Z,16.97
2022-08-01T01:38:27.551Z,17.01
2022-08-01T01:41:32.983Z,17.02
2022-08-01T01:44:38.679Z,17.01
2022-08-01T01:47:46.627Z,17.00
2022-08-01T01:50:53.486Z,16.98
2022-08-01T01:53:59.798Z,16.93
2022-08-01T01:57:07.256Z,16.92
2022-08-01T02:00:13.999Z,16.90
2022-08-01T02:03:21.888Z,16.86
2022-08-01T02:06:29.034Z,16.84
2022-08-01T02:09:36.150Z,16.76
2022-08-01T02:12:46.605Z,16.74
2022-08-01T02:15:59.830Z,16.72
2022-08-01T02:19:05.863Z,16.70
2022-08-01T02:22:18.939Z,16.71
2022-08-01T02:25:28.031Z,16.69
2022-08-01T02:28:36.815Z,16.62
2022-08-01T02:31:48.009Z,16.61
2022-08-01T02:34:55.937Z,16.64
2022-08-01T02:38:03.280Z,16.60
2022-08-01T02:41:12.175Z,16.59
2022-08-01T02:44:29.448Z,16.58
2022-08-01T02:47:35.226Z,16.60
2022-08-01T02:50:44.272Z,16.54
2022-08-01T02:53:50.073Z,16.52
2022-08-01T02:56:55.689Z,16.51
2022-08-01T03:00:03.773Z,16.47
2022-08-01T03:03:11.113Z,16.42
2022-08-01T03:06:19.563Z,16.40
2022-08-01T03:09:25.917Z,16.37
2022-08-01T03:12:35.286Z,16.40
2022-08-01T03:15:42.341Z,16.33
2022-08-01T03:18:47.794Z,16.34
2022-08-01T03:21:54.465Z,16.35
2022-08-01T03:25:01.821Z,16.36
2022-08-01T03:28:09.791Z,16.34
2022-08-01T03:31:16.184Z,16.35
2022-08-01T03:34:22.330Z,16.31
2022-08-01T03:37:36.802Z,16.27
2022-08-01T03:40:47.396Z,16.30
2022-08-01T03:44:00.806Z,16.34
2022-08-01T03:47:10.698Z,16.31
2022-08-01T03:50:18.743Z,16.27
2022-08-01T03:53:31.088Z,16.32
2022-08-01T03:56:36.671Z,16.29
2022-08-01T03:59:41.925Z,16.32
2022-08-01T04:02:47.390Z,16.32
2022-08-01T04:05:51.634Z,16.31
2022-08-01T04:08:57.701Z,16.29
2022-08-01T04:12:02.287Z,16.30
2022-08-01T04:15:16.180Z,16.27
2022-08-01T04:18:20.205Z,16.24
2022-08-01T04:21:29.775Z,16.28
2022-08-01T04:24:37.472Z,16.27
2022-08-01T04:27:50.427Z,16.32
2022-08-01T04:31:02.138Z,16.29
2022-08-01T04:34:08.778Z,16.25
2022-08-01T04:37:15.064Z,16.23
2022-08-01T04:40:22.887Z,16.20
2022-08-01T04:43:26.739Z,16.24
2022-08-01T04:46:32.044Z,16.17
2022-08-01T04:49:44.433Z,16.17
2022-08-01T04:52:53.203Z,16.16
2022-08-01T04:55:58.380Z,16.15
2022-08-01T04:59:20.023Z,16.15
2022-08-01T05:02:24.122Z,16.11
2022-08-01T05:05:27.868Z,16.06
2022-08-01T05:08:31.515Z,16.06
2022-08-01T05:11:36.566Z,16.03
2022-08-01T05:14:40.439Z,16.04
2022-08-01T05:17:44.360Z,16.03
2022-08-01T05:20:48.400Z,15.97
2022-08-01T05:23:52.095Z,16.01
2022-08-01T05:26:57.610Z,16.04
2022-08-01T05:30:01.270Z,15.89
2022-08-01T05:33:04.972Z,15.92
2022-08-01T05:36:09.871Z,15.87
2022-08-01T05:39:13.754Z,15.88
2022-08-01T05:42:18.844Z,15.82
2022-08-01T05:45:22.615Z,15.84
2022-08-01T05:48:26.705Z,15.87
2022-08-01T05:51:30.384Z,15.90
2022-08-01T05:54:34.147Z,15.88
2022-08-01T05:57:39.243Z,15.95
2022-08-01T06:00:44.351Z,15.90
2022-08-01T06:03:48.443Z,15.86
2022-08-01T06:06:52.187Z,15.90
2022-08-01T06:09:55.809Z,15.85
2022-08-01T06:13:03.981Z,15.76
2022-08-01T06:16:07.942Z,15.86
2022-08-01T06:19:11.699Z,15.72
2022-08-01T06:22:15.320Z,15.75
2022-08-01T06:25:21.158Z,15.82
2022-08-01T06:28:26.661Z,15.67
2022-08-01T06:31:33.547Z,15.52
2022-08-01T06:34:37.816Z,15.46
2022-08-01T06:37:41.448Z,15.36
2022-08-01T06:40:45.202Z,15.42
2022-08-01T06:43:50.293Z,15.37
2022-08-01T06:46:53.905Z,15.36
2022-08-01T06:49:57.582Z,15.34
2022-08-01T06:53:01.291Z,15.40
2022-08-01T06:56:06.639Z,15.57
2022-08-01T06:59:11.832Z,15.47
2022-08-01T07:02:15.517Z,15.47
2022-08-01T07:05:20.673Z,15.49
2022-08-01T07:08:24.396Z,15.50
2022-08-01T07:11:28.061Z,15.59
2022-08-01T07:14:33.101Z,15.63
2022-08-01T07:17:40.937Z,15.61
2022-08-01T07:20:51.863Z,15.57
2022-08-01T07:23:56.713Z,15.67
2022-08-01T07:27:00.340Z,15.71
2022-08-01T07:30:26.067Z,15.57
2022-08-01T07:33:48.700Z,15.67
2022-08-01T07:36:53.801Z,15.75
2022-08-01T07:39:57.439Z,15.66
2022-08-01T07:43:01.060Z,15.84
2022-08-01T07:46:06.870Z,15.92
2022-08-01T07:49:10.679Z,15.90
2022-08-01T07:52:14.375Z,15.97
2022-08-01T07:55:18.077Z,15.97
2022-08-01T07:58:21.775Z,16.11
2022-08-01T08:01:27.838Z,16.58
2022-08-01T08:04:31.549Z,16.74
2022-08-01T08:07:35.476Z,16.76
2022-08-01T08:10:39.308Z,17.09
2022-08-01T08:13:45.007Z,16.81
2022-08-01T08:16:50.016Z,16.90
2022-08-01T08:19:53.676Z,16.79
2022-08-01T08:22:58.910Z,16.77
2022-08-01T08:26:02.660Z,16.74
2022-08-01T08:29:06.355Z,17.44
2022-08-01T08:32:11.736Z,17.69
2022-08-01T08:35:20.126Z,17.48
2022-08-01T08:38:29.918Z,17.25
2022-08-01T08:41:37.933Z,17.25
2022-08-01T08:44:44.572Z,17.76
2022-08-01T08:47:51.681Z,17.39
2022-08-01T08:50:58.535Z,17.64
2022-08-01T08:54:06.299Z,18.21
2022-08-01T08:57:11.631Z,18.46
2022-08-01T09:00:17.411Z,18.10
2022-08-01T09:03:22.506Z,17.90
2022-08-01T09:06:26.832Z,18.40
2022-08-01T09:09:31.304Z,18.45
2022-08-01T09:12:36.079Z,18.74
2022-08-01T09:15:46.100Z,19.28
2022-08-01T09:18:53.489Z,19.08
2022-08-01T09:22:02.830Z,19.19
2022-08-01T09:25:10.705Z,19.42
2022-08-01T09:28:14.298Z,18.96
2022-08-01T09:31:21.298Z,19.01
2022-08-01T09:34:31.489Z,18.72
2022-08-01T09:37:37.306Z,18.46
2022-08-01T09:40:53.343Z,19.06
2022-08-01T09:43:57.170Z,18.95
2022-08-01T09:47:07.690Z,19.21
2022-08-01T09:50:13.698Z,19.64
2022-08-01T09:53:24.456Z,19.16
2022-08-01T09:56:43.552Z,19.25
2022-08-01T10:00:00.610Z,19.44
2022-08-01T10:03:24.029Z,19.16
2022-08-01T10:06:29.184Z,19.56
2022-08-01T10:09:40.772Z,19.30
2022-08-01T10:12:45.992Z,19.29
2022-08-01T10:15:52.954Z,19.37
2022-08-01T10:18:59.108Z,19.50
2022-08-01T10:22:06.896Z,19.14
2022-08-01T10:25:14.001Z,19.64
2022-08-01T10:28:24.267Z,19.35
2022-08-01T10:31:32.085Z,19.57
2022-08-01T10:34:37.477Z,19.81
2022-08-01T10:37:52.038Z,19.47
2022-08-01T10:40:59.231Z,19.64
2022-08-01T10:44:04.101Z,19.44
2022-08-01T10:47:14.676Z,19.32
2022-08-01T10:50:30.723Z,19.15
2022-08-01T10:53:42.991Z,19.65
2022-08-01T10:56:51.589Z,19.65
2022-08-01T10:59:59.280Z,19.37
2022-08-01T11:03:08.835Z,19.29
2022-08-01T11:06:19.723Z,19.50
2022-08-01T11:09:37.021Z,19.26
2022-08-01T11:12:43.918Z,19.07
2022-08-01T11:15:49.911Z,19.24
2022-08-01T11:18:54.718Z,18.92
2022-08-01T11:22:04.934Z,19.22
2022-08-01T11:25:10.130Z,19.22
2022-08-01T11:28:30.137Z,19.23
2022-08-01T11:31:38.172Z,19.77
2022-08-01T11:34:58.039Z,19.52
2022-08-01T11:38:28.410Z,19.33
2022-08-01T11:41:39.077Z,19.46
2022-08-01T11:44:52.428Z,19.40
2022-08-01T11:47:57.042Z,19.26
2022-08-01T11:51:02.282Z,19.29
2022-08-01T11:54:06.523Z,19.23
2022-08-01T11:57:14.991Z,19.01
2022-08-01T12:00:20.781Z,19.62
2022-08-01T12:03:33.450Z,19.62
2022-08-01T12:06:37.998Z,19.80
2022-08-01T12:09:45.398Z,19.76
2022-08-01T12:12:52.917Z,20.27
2022-08-01T12:15:57.318Z,20.04
2022-08-01T12:19:01.594Z,19.41
2022-08-01T12:22:11.415Z,19.62
2022-08-01T12:25:17.162Z,20.21
2022-08-01T12:28:22.659Z,19.81
2022-08-01T12:31:34.858Z,19.89
2022-08-01T12:34:39.109Z,19.63
2022-08-01T12:37:45.848Z,19.17
2022-08-01T12:40:53.396Z,19.64
2022-08-01T12:44:01.377Z,19.73
2022-08-01T12:47:08.844Z,19.87
2022-08-01T12:50:17.024Z,19.17
2022-08-01T12:53:22.675Z,19.17
2022-08-01T12:56:35.204Z,18.97
2022-08-01T12:59:41.407Z,19.20
2022-08-01T13:02:46.788Z,19.27
2022-08-01T13:05:53.288Z,19.28
2022-08-01T13:08:57.056Z,19.42
2022-08-01T13:12:10.937Z,19.13
2022-08-01T13:15:33.159Z,19.33
2022-08-01T13:18:38.268Z,19.69
2022-08-01T13:21:55.451Z,19.47
2022-08-01T13:25:14.220Z,19.36
2022-08-01T13:28:21.789Z,19.30
2022-08-01T13:31:35.647Z,19.17
2022-08-01T13:34:39.814Z,19.17
2022-08-01T13:37:44.399Z,19.08
2022-08-01T13:40:48.500Z,19.09
2022-08-01T13:43:58.769Z,18.96
2022-08-01T13:47:14.822Z,19.26
2022-08-01T13:50:20.326Z,19.67
2022-08-01T13:53:24.033Z,19.74
2022-08-01T13:56:29.597Z,19.50
2022-08-01T13:59:33.722Z,19.40
2022-08-01T14:02:38.958Z,19.45
2022-08-01T14:05:43.224Z,19.48
2022-08-01T14:08:47.596Z,19.76
2022-08-01T14:11:51.350Z,19.77
2022-08-01T14:14:55.768Z,19.56
2022-08-01T14:18:01.658Z,19.31
2022-08-01T14:21:05.983Z,18.86
2022-08-01T14:24:10.742Z,19.15
2022-08-01T14:27:14.433Z,19.30
2022-08-01T14:30:18.047Z,18.89
2022-08-01T14:33:23.251Z,19.14
2022-08-01T14:36:30.686Z,18.96
2022-08-01T14:39:35.134Z,19.31
2022-08-01T14:42:39.332Z,19.26
2022-08-01T14:45:42.943Z,19.20
2022-08-01T14:48:47.965Z,18.89
2022-08-01T14:51:51.620Z,18.69
2022-08-01T14:54:55.272Z,18.58
2022-08-01T14:57:58.869Z,18.83
2022-08-01T15:01:02.950Z,19.29
2022-08-01T15:04:09.875Z,19.17
2022-08-01T15:07:14.092Z,18.90
2022-08-01T15:10:17.758Z,18.99
2022-08-01T15:13:22.117Z,19.33
2022-08-01T15:16:26.718Z,18.99
2022-08-01T15:19:31.854Z,18.96
2022-08-01T15:22:36.088Z,18.97
2022-08-01T15:25:41.199Z,19.46
2022-08-01T15:28:45.795Z,19.76
2022-08-01T15:31:49.604Z,19.52
2022-08-01T15:34:55.144Z,19.68
2022-08-01T15:37:58.806Z,19.92
2022-08-01T15:41:02.928Z,19.39
2022-08-01T15:44:06.663Z,19.50
2022-08-01T15:47:11.934Z,19.30
2022-08-01T15:50:17.002Z,18.99
2022-08-01T15:53:20.753Z,19.20
2022-08-01T15:56:24.946Z,19.01
2022-08-01T15:59:29.691Z,19.10
2022-08-01T16:02:33.420Z,18.98
2022-08-01T16:05:43.392Z,18.68
2022-08-01T16:08:47.328Z,18.64
2022-08-01T16:11:51.328Z,18.97
2022-08-01T16:14:55.004Z,18.85
2022-08-01T16:18:01.996Z,18.78
2022-08-01T16:21:07.919Z,18.81
2022-08-01T16:24:11.520Z,18.43
2022-08-01T16:27:15.230Z,18.29
2022-08-01T16:30:18.926Z,18.21
2022-08-01T16:33:45.743Z,18.15
2022-08-01T16:36:50.156Z,18.17
2022-08-01T16:39:53.798Z,18.07
2022-08-01T16:43:00.086Z,18.05
2022-08-01T16:46:03.764Z,17.93
2022-08-01T16:49:07.774Z,18.07
2022-08-01T16:52:12.990Z,18.02
2022-08-01T16:55:16.992Z,18.04
2022-08-01T16:58:27.996Z,18.20
2022-08-01T17:01:59.950Z,18.12
2022-08-01T17:04:56.777Z,17.91
2022-08-01T17:08:01.904Z,17.98
2022-08-01T17:11:05.856Z,17.84
2022-08-01T17:14:09.595Z,17.71
2022-08-01T17:17:13.653Z,17.56
2022-08-01T17:20:17.326Z,17.61
2022-08-01T17:23:22.453Z,17.63
2022-08-01T17:26:26.234Z,17.65
2022-08-01T17:29:43.264Z,17.55
2022-08-01T17:32:49.032Z,17.53
2022-08-01T17:35:52.688Z,17.61
2022-08-01T17:38:59.183Z,17.32
2022-08-01T17:42:02.788Z,17.52
2022-08-01T17:45:27.405Z,17.40
2022-08-01T17:48:31.472Z,17.46
2022-08-01T17:51:35.111Z,17.47
2022-08-01T17:54:40.131Z,17.34
2022-08-01T17:57:43.778Z,17.07
2022-08-01T18:00:47.459Z,17.17
2022-08-01T18:03:51.163Z,17.17
2022-08-01T18:06:58.121Z,16.90
2022-08-01T18:10:04.215Z,16.83
2022-08-01T18:13:16.656Z,16.86
2022-08-01T18:16:20.664Z,16.77
2022-08-01T18:19:24.458Z,16.58
2022-08-01T18:22:31.282Z,16.55
2022-08-01T18:25:38.617Z,16.43
2022-08-01T18:28:46.462Z,16.38
2022-08-01T18:31:51.479Z,16.42
2022-08-01T18:34:55.167Z,16.31
2022-08-01T18:37:59.244Z,16.25
2022-08-01T18:41:10.168Z,16.15
2022-08-01T18:44:15.778Z,16.09
2022-08-01T18:47:19.554Z,16.03
2022-08-01T18:50:24.342Z,15.92
2022-08-01T18:53:28.427Z,15.83
2022-08-01T18:56:33.548Z,15.68
2022-08-01T18:59:37.712Z,15.52
2022-08-01T19:02:57.887Z,15.48
2022-08-01T19:06:01.660Z,15.37
2022-08-01T19:09:08.581Z,15.27
2022-08-01T19:12:14.284Z,15.10
2022-08-01T19:15:38.132Z,14.98
2022-08-01T19:18:41.884Z,14.90
2022-08-01T19:21:45.726Z,14.89
2022-08-01T19:24:49.475Z,14.80
2022-08-01T19:27:57.574Z,14.77
2022-08-01T19:31:03.520Z,14.69
2022-08-01T19:34:09.283Z,14.52
2022-08-01T19:37:13.738Z,14.44
2022-08-01T19:40:27.789Z,14.37
2022-08-01T19:43:40.489Z,14.35
2022-08-01T19:46:46.989Z,14.27
2022-08-01T19:49:50.661Z,14.22
2022-08-01T19:52:57.635Z,14.15
2022-08-01T19:56:04.826Z,14.07
2022-08-01T19:59:10.939Z,14.00
2022-08-01T20:02:20.069Z,14.03
2022-08-01T20:05:25.929Z,13.96
2022-08-01T20:08:32.323Z,13.94
2022-08-01T20:11:36.904Z,13.87
2022-08-01T20:14:44.614Z,13.83
2022-08-01T20:17:48.317Z,13.76
2022-08-01T20:20:54.424Z,13.69
2022-08-01T20:24:02.980Z,13.66
2022-08-01T20:27:08.535Z,13.58
2022-08-01T20:30:14.748Z,13.45
2022-08-01T20:33:20.399Z,13.40
2022-08-01T20:36:26.374Z,13.36
2022-08-01T20:39:32.139Z,13.30
2022-08-01T20:42:39.175Z,13.30
2022-08-01T20:45:47.285Z,13.25
2022-08-01T20:48:54.180Z,13.18
2022-08-01T20:51:58.467Z,13.16
2022-08-01T20:55:02.157Z,13.12
2022-08-01T20:58:06.624Z,13.06
2022-08-01T21:01:16.614Z,13.03
2022-08-01T21:04:54.284Z,12.96
2022-08-01T21:08:06.063Z,12.87
2022-08-01T21:11:20.853Z,12.83
2022-08-01T21:14:45.202Z,12.78
2022-08-01T21:17:59.406Z,12.76
2022-08-01T21:21:10.166Z,12.68
2022-08-01T21:24:19.133Z,12.60
2022-08-01T21:27:33.497Z,12.55
2022-08-01T21:30:38.470Z,12.46
2022-08-01T21:33:57.104Z,12.43
2022-08-01T21:37:10.079Z,12.40
2022-08-01T21:40:15.020Z,12.38
2022-08-01T21:43:19.370Z,12.34
2022-08-01T21:46:23.300Z,12.30
2022-08-01T21:49:29.191Z,12.25
2022-08-01T21:52:44.818Z,12.14
2022-08-01T21:56:10.956Z,12.09
2022-08-01T21:59:29.940Z,12.03
2022-08-01T22:02:39.901Z,12.00
2022-08-01T22:05:51.570Z,11.96
2022-08-01T22:09:04.343Z,11.87
2022-08-01T22:12:11.709Z,11.84
2022-08-01T22:15:24.565Z,11.81
2022-08-01T22:18:29.040Z,11.81
2022-08-01T22:21:35.180Z,11.80
2022-08-01T22:24:39.908Z,11.76
2022-08-01T22:28:06.415Z,11.73
2022-08-01T22:31:08.658Z,11.73
2022-08-01T22:34:13.491Z,11.68
2022-08-01T22:37:18.501Z,11.66
2022-08-01T22:40:51.033Z,11.58
2022-08-01T22:44:01.654Z,11.57
2022-08-01T22:47:14.392Z,11.57
2022-08-01T22:50:34.357Z,11.50
2022-08-01T22:53:55.942Z,11.42
2022-08-01T22:57:08.260Z,11.40
2022-08-01T23:00:14.475Z,11.30
2022-08-01T23:03:27.797Z,11.21
2022-08-01T23:06:41.303Z,11.13
2022-08-01T23:09:54.918Z,11.03
2022-08-01T23:13:02.405Z,10.93
2022-08-01T23:16:06.843Z,10.89
2022-08-01T23:19:11.436Z,10.92
2022-08-01T23:22:16.913Z,10.95
2022-08-01T23:25:22.045Z,10.82
2022-08-01T23:28:27.120Z,10.81
2022-08-01T23:31:55.613Z,10.73
2022-08-01T23:34:55.168Z,10.69
2022-08-01T23:38:02.175Z,10.67
2022-08-01T23:41:14.924Z,10.66
2022-08-01T23:44:18.621Z,10.67
2022-08-01T23:47:22.312Z,10.68
2022-08-01T23:50:26.896Z,10.68
2022-08-01T23:53:32.270Z,10.72
2022-08-01T23:56:37.630Z,10.67
2022-08-01T23:59:53.087Z,10.62
